カイロ の空港の天気 - METARとTAF

カイロ国際空港 ( HECA / CAI ) - エジプト [カイロ
飛行場実況気象(Metar)
観測時間02/18 01:00 EET (02/17 23:00 UTC)
風向・風速南南西 2m/s
視程6000m
天気現象
全天の4割程度の雲 雲底高度 760m
全天の8割程度の雲 雲底高度 910m
気温13℃
湿度54%
気圧1020hPa
METARHECA 172300Z 20004KT 6000 SCT025 BKN030 13/04 Q1020 NOSIG
過去の天気等 Google飛行場航空写真 Wunderground天気予報

過去48時間のMETAR

飛行場予報(TAF)
発表時間: 2/17 19:24 EET (2/17 17:24 UTC)
予報対象時間: 17日20時 EET ~ 19日2時 EET
風向・風速西北西 5m/s
視程6000m
全天の4割程度の雲 雲底高度 760m
全天の8割程度の雲 雲底高度 910m
17日20時 EET ~ 18日8時 EET に一時的に
風向・風速西北西 5m/s 瞬間風速 10m/s
天気現象
少しの積乱雲 雲底高度 610m
17日20時 EET ~ 18日5時 EET に 確率 30% で一時的に
天気現象
TAF COR HECA 171724Z 1718/1824 30010KT 6000 SCT025 BKN030
TEMPO 1718/1806 30010G20KT RA FEW020CB
PROB30 TEMPO 1718/1803 TS